Time;durP1;ratioP1;P1;durP2;ratioP2;P2;SDS_P1;SDS_P2;PMS_P1;PMS_P2;Temp;Humidity;BMP_temperature;BMP_pressure;BME280_temperature;BME280_humidity;BME280_pressure;Samples;Min_cycle;Max_cycle;Signal;HPM_P1;HPM_P2
2022/12/01 00:01:11;;;;;;;55.72;18.23;;;;;;;5.08;100.00;102713.44;5000155;28;20404;-74
2022/12/01 00:03:37;;;;;;;57.83;19.10;;;;;;;5.08;100.00;102718.59;5007719;28;20030;-74
2022/12/01 00:06:05;;;;;;;59.30;19.48;;;;;;;5.06;100.00;102707.38;5009931;28;20033;-74
2022/12/01 00:08:32;;;;;;;64.07;19.55;;;;;;;5.07;100.00;102714.28;5008457;28;20619;-74
2022/12/01 00:11:13;;;;;;;60.70;19.10;;;;;;;5.06;100.00;102712.53;5011601;28;20097;-74
2022/12/01 00:13:38;;;;;;;58.22;19.52;;;;;;;5.06;100.00;102710.81;5013466;28;20408;-75
2022/12/01 00:16:15;;;;;;;63.92;20.00;;;;;;;5.08;100.00;102714.31;5013226;28;20030;-75
2022/12/01 00:18:41;;;;;;;57.97;18.73;;;;;;;5.07;100.00;102704.88;5018033;28;20026;-74
2022/12/01 00:21:13;;;;;;;60.75;18.52;;;;;;;5.08;100.00;102700.59;5020438;28;20033;-75
2022/12/01 00:23:41;;;;;;;59.35;18.52;;;;;;;5.10;100.00;102702.41;5011625;28;20034;-75
2022/12/01 00:26:06;;;;;;;59.38;19.77;;;;;;;5.09;100.00;102705.78;5010796;28;20504;-75
2022/12/01 00:28:31;;;;;;;70.68;19.90;;;;;;;5.10;100.00;102704.97;5008010;28;20053;-75
2022/12/01 00:30:57;;;;;;;62.17;19.80;;;;;;;5.09;100.00;102710.94;5011032;28;20037;-75
2022/12/01 00:33:22;;;;;;;66.57;21.30;;;;;;;5.09;100.00;102712.63;4995206;28;20389;-75
2022/12/01 00:35:47;;;;;;;72.93;20.65;;;;;;;5.08;100.00;102711.75;5012301;28;20216;-74
2022/12/01 00:38:13;;;;;;;75.93;22.13;;;;;;;5.06;100.00;102702.25;5003145;28;20125;-75
2022/12/01 00:40:38;;;;;;;70.47;20.52;;;;;;;5.05;100.00;102701.38;5012277;28;20038;-75
2022/12/01 00:43:03;;;;;;;76.35;21.30;;;;;;;5.06;100.00;102707.38;5012279;28;20026;-74
2022/12/01 00:45:29;;;;;;;71.55;20.80;;;;;;;5.03;100.00;102692.75;5011260;28;20451;-75
2022/12/01 00:47:54;;;;;;;76.38;22.23;;;;;;;5.05;100.00;102703.09;5020664;28;20029;-75
2022/12/01 00:50:19;;;;;;;76.38;21.77;;;;;;;5.05;100.00;102706.50;5011628;28;20022;-74
2022/12/01 00:52:44;;;;;;;72.30;20.83;;;;;;;5.01;100.00;102701.25;5012664;28;20113;-75
2022/12/01 00:55:10;;;;;;;72.78;20.17;;;;;;;5.05;100.00;102701.38;5010667;28;20502;-75
2022/12/01 00:57:35;;;;;;;72.43;21.00;;;;;;;5.05;100.00;102701.38;5013648;28;20041;-75
2022/12/01 01:00:00;;;;;;;73.80;20.63;;;;;;;5.06;100.00;102704.81;5016853;28;20034;-75
2022/12/01 01:02:26;;;;;;;68.20;20.40;;;;;;;5.04;100.00;102706.50;5003684;28;20064;-75
2022/12/01 01:04:51;;;;;;;66.53;19.85;;;;;;;5.03;100.00;102703.03;5009412;28;20057;-75
2022/12/01 01:07:16;;;;;;;64.18;20.52;;;;;;;5.04;100.00;102709.06;5009736;28;20017;-75
2022/12/01 01:09:42;;;;;;;69.85;21.02;;;;;;;5.04;100.00;102711.63;5013044;28;20053;-75
2022/12/01 01:12:07;;;;;;;59.55;20.17;;;;;;;5.02;100.00;102711.56;5011356;28;20476;-75
2022/12/01 01:14:32;;;;;;;68.28;20.85;;;;;;;5.02;100.00;102716.72;5011933;28;20104;-75
2022/12/01 01:16:59;;;;;;;64.00;20.10;;;;;;;5.03;100.00;102713.31;5012493;28;20081;-75
2022/12/01 01:19:24;;;;;;;67.03;20.15;;;;;;;5.03;100.00;102713.31;4993512;28;20115;-75
2022/12/01 01:21:49;;;;;;;64.65;19.83;;;;;;;5.01;100.00;102714.09;5009888;28;20488;-75
2022/12/01 01:24:15;;;;;;;63.63;19.77;;;;;;;5.04;100.00;102721.91;5011998;28;20494;-75
2022/12/01 01:26:40;;;;;;;67.97;19.92;;;;;;;5.05;100.00;102723.66;5009832;28;20037;-75
2022/12/01 01:29:06;;;;;;;63.22;20.27;;;;;;;5.07;100.00;102724.56;5007486;28;20057;-75
2022/12/01 01:31:33;;;;;;;63.63;20.08;;;;;;;5.05;100.00;102726.22;5009521;28;20403;-75
2022/12/01 01:33:58;;;;;;;64.72;19.60;;;;;;;5.06;100.00;102730.50;4992996;28;20036;-75
2022/12/01 01:36:24;;;;;;;69.18;20.60;;;;;;;5.01;100.00;102727.81;5008183;28;20017;-75
2022/12/01 01:38:50;;;;;;;66.78;20.67;;;;;;;5.01;100.00;102744.94;5009570;28;20080;-75
2022/12/01 01:41:17;;;;;;;68.05;19.80;;;;;;;5.00;100.00;102743.19;5008929;28;20034;-75
2022/12/01 01:43:52;;;;;;;69.03;19.40;;;;;;;4.99;100.00;102742.31;4993411;28;20530;-75
2022/12/01 01:46:23;;;;;;;67.88;19.67;;;;;;;5.00;100.00;102743.19;5008071;28;20554;-75
2022/12/01 01:49:06;;;;;;;78.28;21.55;;;;;;;4.99;100.00;102734.59;5010405;28;20100;-75
2022/12/01 01:51:45;;;;;;;65.75;18.90;;;;;;;4.99;100.00;102741.44;5008894;28;20022;-75
2022/12/01 01:54:19;;;;;;;65.70;19.45;;;;;;;4.99;100.00;102739.75;5010189;28;20516;-75
2022/12/01 01:56:46;;;;;;;63.72;19.60;;;;;;;5.01;100.00;102735.53;5007456;28;20485;-75
2022/12/01 01:59:16;;;;;;;63.75;20.70;;;;;;;5.01;100.00;102734.66;5008541;28;20064;-75
2022/12/01 02:01:41;;;;;;;67.60;20.05;;;;;;;5.02;100.00;102738.97;4998749;28;20565;-75
2022/12/01 02:04:06;;;;;;;62.47;18.75;;;;;;;5.00;100.00;102738.03;5000133;28;20030;-75
2022/12/01 02:06:32;;;;;;;67.55;19.55;;;;;;;4.99;100.00;102736.28;5008728;28;20018;-75
2022/12/01 02:08:57;;;;;;;68.80;20.38;;;;;;;4.98;100.00;102740.56;5006805;28;20049;-75
2022/12/01 02:11:47;;;;;;;73.97;21.25;;;;;;;4.99;100.00;102738.88;5005579;28;20026;-75
2022/12/01 02:14:22;;;;;;;71.20;19.52;;;;;;;4.99;100.00;102734.59;5008994;28;20045;-75
2022/12/01 02:17:14;;;;;;;65.40;19.42;;;;;;;5.00;100.00;102726.06;5010453;28;20029;-75
2022/12/01 02:20:07;;;;;;;67.43;19.23;;;;;;;5.02;100.00;102728.69;5005378;28;20022;-75
2022/12/01 02:22:59;;;;;;;70.53;20.55;;;;;;;5.03;100.00;102735.59;5005941;28;20511;-75
2022/12/01 02:25:54;;;;;;;63.83;19.65;;;;;;;5.01;100.00;102738.09;4991046;28;20010;-75
2022/12/01 02:28:28;;;;;;;69.47;20.48;;;;;;;5.01;100.00;102734.66;4991376;28;20042;-75
2022/12/01 02:31:00;;;;;;;68.80;20.33;;;;;;;5.00;100.00;102735.47;5009455;28;20504;-75
2022/12/01 02:33:41;;;;;;;68.05;19.75;;;;;;;4.99;100.00;102737.16;5002596;28;20552;-75
2022/12/01 02:36:19;;;;;;;77.30;21.05;;;;;;;4.98;100.00;102743.13;5005879;28;20037;-75
2022/12/01 02:38:54;;;;;;;70.95;20.98;;;;;;;4.98;100.00;102732.84;5007327;28;20069;-75
2022/12/01 02:41:24;;;;;;;;;;;;;;;5.00;100.00;102736.34;5008191;28;20029;-75
2022/12/01 02:44:13;;;;;;;68.57;20.42;;;;;;;4.99;100.00;102747.44;5008373;28;19913;-75
2022/12/01 02:46:45;;;;;;;73.40;21.40;;;;;;;4.99;100.00;102739.75;4990737;28;20026;-75
2022/12/01 02:49:19;;;;;;;64.72;19.40;;;;;;;4.96;100.00;102728.50;5004136;28;20501;-75
2022/12/01 02:51:46;;;;;;;76.72;20.90;;;;;;;4.96;100.00;102742.25;5013707;28;20487;-75
2022/12/01 02:54:13;;;;;;;70.10;20.75;;;;;;;4.96;100.00;102737.09;4992188;28;20034;-75
2022/12/01 02:56:42;;;;;;;65.28;20.55;;;;;;;4.94;100.00;102740.44;5009136;28;20030;-75
2022/12/01 02:59:12;;;;;;;69.32;20.50;;;;;;;4.94;100.00;102746.44;5007430;28;20108;-75
2022/12/01 03:02:06;;;;;;;74.85;21.98;;;;;;;4.94;100.00;102735.28;4996080;28;20076;-75
2022/12/01 03:04:44;;;;;;;69.70;20.00;;;;;;;4.95;100.00;102747.31;5005882;28;20037;-76
2022/12/01 03:07:14;;;;;;;69.90;20.95;;;;;;;4.93;100.00;102738.69;5006408;28;20396;-76
2022/12/01 03:09:53;;;;;;;67.28;20.65;;;;;;;4.94;100.00;102740.44;5006994;28;20045;-75
2022/12/01 03:12:27;;;;;;;67.00;21.15;;;;;;;4.94;100.00;102737.88;5006980;28;20400;-75
2022/12/01 03:15:09;;;;;;;61.70;19.55;;;;;;;4.94;100.00;102743.88;5008307;28;20041;-75
2022/12/01 03:17:46;;;;;;;67.15;20.05;;;;;;;4.95;100.00;102743.06;5000765;28;20548;-76
2022/12/01 03:20:27;;;;;;;64.95;20.35;;;;;;;4.95;100.00;102742.19;5005981;28;20375;-75
2022/12/01 03:23:00;;;;;;;65.18;20.13;;;;;;;4.96;100.00;102742.25;5008108;28;20045;-76
2022/12/01 03:25:28;;;;;;;64.85;20.70;;;;;;;4.95;100.00;102737.03;5008163;28;20511;-75
2022/12/01 03:27:57;;;;;;;63.13;19.42;;;;;;;4.95;100.00;102740.50;4985457;28;20447;-75
2022/12/01 03:30:24;;;;;;;65.07;21.20;;;;;;;4.96;100.00;102741.38;5003477;28;20025;-75
2022/12/01 03:33:13;;;;;;;63.00;19.55;;;;;;;4.93;100.00;102742.13;5006274;28;20029;-76
2022/12/01 03:35:44;;;;;;;59.78;19.73;;;;;;;4.95;100.00;102737.91;5009514;28;20048;-75
2022/12/01 03:38:17;;;;;;;66.85;20.08;;;;;;;4.96;100.00;102738.78;5006188;28;20025;-76
2022/12/01 03:40:45;;;;;;;67.80;21.00;;;;;;;4.96;100.00;102742.25;5002598;28;20374;-75
2022/12/01 03:43:15;;;;;;;61.65;19.48;;;;;;;4.96;100.00;102744.81;5007792;28;20085;-75
2022/12/01 03:45:55;;;;;;;58.53;20.00;;;;;;;4.95;100.00;102737.91;5009963;28;20480;-75
2022/12/01 03:48:23;;;;;;;62.45;18.92;;;;;;;4.95;100.00;102737.03;5011555;28;20040;-75
2022/12/01 03:51:25;;;;;;;63.60;20.00;;;;;;;4.95;100.00;102734.47;5002195;28;20155;-76
2022/12/01 03:54:01;;;;;;;59.88;19.20;;;;;;;4.95;100.00;102739.63;5007183;28;20462;-75
2022/12/01 03:56:37;;;;;;;64.03;20.67;;;;;;;4.93;100.00;102739.56;5009344;28;20408;-76
2022/12/01 03:59:07;;;;;;;65.07;19.75;;;;;;;4.94;100.00;102741.31;5009321;28;20037;-76
2022/12/01 04:01:33;;;;;;;65.30;21.38;;;;;;;4.95;100.00;102749.91;5003561;28;20026;-76
2022/12/01 04:04:10;;;;;;;65.93;20.55;;;;;;;4.95;100.00;102744.75;5007246;28;20025;-76
2022/12/01 04:06:36;;;;;;;66.05;22.20;;;;;;;4.95;100.00;102748.19;5011314;28;20030;-76
2022/12/01 04:09:02;;;;;;;66.00;19.83;;;;;;;4.96;100.00;102752.53;5009620;28;20046;-75
2022/12/01 04:14:12;;;;;;;60.70;19.58;;;;;;;4.98;100.00;102744.88;5010793;28;20037;-76
2022/12/01 04:16:37;;;;;;;59.60;19.95;;;;;;;4.96;100.00;102749.94;5011664;28;20029;-75
2022/12/01 04:19:02;;;;;;;53.78;18.95;;;;;;;4.97;100.00;102756.84;5009688;28;20401;-76
2022/12/01 04:21:28;;;;;;;56.92;18.73;;;;;;;4.95;100.00;102750.78;5008552;28;20112;-76
2022/12/01 04:23:59;;;;;;;54.97;19.35;;;;;;;4.96;100.00;102751.66;5012831;28;20030;-76
2022/12/01 04:26:25;;;;;;;66.82;19.70;;;;;;;4.96;100.00;102747.38;5010095;28;20144;-76
2022/12/01 04:28:50;;;;;;;57.55;20.10;;;;;;;4.97;100.00;102755.97;5008686;28;20104;-76
2022/12/01 04:31:15;;;;;;;58.30;18.90;;;;;;;4.96;100.00;102755.09;5011226;28;20025;-76
2022/12/01 04:33:41;;;;;;;59.10;20.17;;;;;;;4.96;100.00;102752.53;5006830;28;20049;-76
2022/12/01 04:36:06;;;;;;;55.65;18.48;;;;;;;4.96;100.00;102752.53;4994060;28;20054;-76
2022/12/01 04:38:32;;;;;;;61.05;20.52;;;;;;;4.93;100.00;102741.25;5011435;28;20045;-76
2022/12/01 04:40:57;;;;;;;62.03;19.60;;;;;;;4.95;100.00;102744.75;5008086;28;20029;-76
2022/12/01 04:43:23;;;;;;;58.22;19.58;;;;;;;4.95;100.00;102739.63;5011409;28;20408;-76
2022/12/01 04:45:48;;;;;;;59.83;19.50;;;;;;;4.96;100.00;102746.50;5012406;28;20038;-76
2022/12/01 04:48:14;;;;;;;51.58;17.90;;;;;;;4.98;100.00;102745.69;5008328;28;20030;-76
2022/12/01 04:50:40;;;;;;;58.30;19.17;;;;;;;5.00;100.00;102744.06;5012962;28;20392;-76
2022/12/01 04:53:05;;;;;;;56.78;18.77;;;;;;;4.98;100.00;102740.56;5011682;28;20034;-76
2022/12/01 04:55:31;;;;;;;58.53;20.80;;;;;;;5.02;100.00;102747.56;5009119;28;20084;-76
2022/12/01 04:57:56;;;;;;;53.88;18.75;;;;;;;5.03;100.00;102748.44;5010667;28;20020;-75
2022/12/01 05:00:22;;;;;;;61.40;20.33;;;;;;;5.00;100.00;102743.19;5009104;28;20046;-75
2022/12/01 05:02:47;;;;;;;54.15;18.83;;;;;;;4.97;100.00;102738.84;5011367;28;20034;-76
2022/12/01 05:05:13;;;;;;;59.80;18.92;;;;;;;4.97;100.00;102736.28;5002012;28;20040;-75
2022/12/01 05:07:39;;;;;;;57.95;19.73;;;;;;;4.96;100.00;102742.25;5007515;28;20030;-76
2022/12/01 05:10:06;;;;;;;58.17;18.27;;;;;;;4.98;100.00;102750.00;5011668;28;20045;-76
2022/12/01 05:12:31;;;;;;;59.15;18.77;;;;;;;4.98;100.00;102752.56;5010592;28;20030;-76
2022/12/01 05:14:56;;;;;;;59.95;19.85;;;;;;;4.99;100.00;102746.56;5007179;28;20042;-76
2022/12/01 05:17:22;;;;;;;64.07;19.30;;;;;;;5.00;100.00;102745.75;5009693;28;20071;-75
2022/12/01 05:22:31;;;;;;;60.42;19.98;;;;;;;4.95;100.00;102753.34;5007420;28;20060;-76
2022/12/01 05:24:57;;;;;;;59.35;19.45;;;;;;;4.94;100.00;102753.28;5009091;28;20022;-75
2022/12/01 05:27:22;;;;;;;56.10;19.23;;;;;;;4.94;100.00;102754.16;5009334;28;20021;-76
2022/12/01 05:29:47;;;;;;;64.35;20.67;;;;;;;4.92;100.00;102748.09;5010352;28;20038;-76
2022/12/01 05:32:13;;;;;;;56.45;18.50;;;;;;;4.93;100.00;102749.84;5011912;28;20044;-76
2022/12/01 05:34:38;;;;;;;63.33;20.13;;;;;;;4.92;100.00;102748.09;5011518;28;20026;-76
2022/12/01 05:37:04;;;;;;;58.28;19.75;;;;;;;4.93;100.00;102748.97;5008485;28;20034;-76
2022/12/01 05:39:29;;;;;;;61.83;19.90;;;;;;;4.92;100.00;102760.06;5011603;28;20038;-76
2022/12/01 05:41:55;;;;;;;62.92;20.20;;;;;;;4.92;100.00;102760.06;5006301;28;20079;-76
2022/12/01 05:44:20;;;;;;;62.00;19.52;;;;;;;4.93;100.00;102756.69;5009970;28;20025;-76
2022/12/01 05:46:45;;;;;;;60.72;19.60;;;;;;;4.91;100.00;102758.34;5010708;28;20029;-76
2022/12/01 05:49:11;;;;;;;70.22;20.73;;;;;;;4.88;100.00;102753.09;5009906;28;20041;-76
2022/12/01 05:51:36;;;;;;;69.25;20.73;;;;;;;4.90;100.00;102754.03;5008874;28;20018;-76
2022/12/01 05:54:01;;;;;;;64.30;20.63;;;;;;;4.86;100.00;102758.19;5009179;28;20423;-76
2022/12/01 05:56:27;;;;;;;73.75;21.67;;;;;;;4.88;100.00;102760.81;5008178;28;20045;-76
2022/12/01 05:58:52;;;;;;;64.18;20.63;;;;;;;4.87;100.00;102757.38;5009755;28;20125;-76
2022/12/01 06:01:17;;;;;;;63.67;20.02;;;;;;;4.86;100.00;102760.75;5004749;28;20070;-76
2022/12/01 06:03:43;;;;;;;64.65;20.98;;;;;;;4.85;100.00;102755.56;5006678;28;20056;-76
2022/12/01 06:06:08;;;;;;;63.67;21.27;;;;;;;4.87;100.00;102764.19;5012756;28;20049;-76
2022/12/01 06:08:33;;;;;;;66.15;20.58;;;;;;;4.85;100.00;102761.56;5010539;28;20041;-75
2022/12/01 06:10:59;;;;;;;64.47;20.75;;;;;;;4.85;100.00;102761.56;5004029;28;20038;-76
2022/12/01 06:13:25;;;;;;;64.13;19.60;;;;;;;4.86;100.00;102763.31;5002789;28;20037;-75
2022/12/01 06:16:01;;;;;;;64.13;20.75;;;;;;;4.86;100.00;102771.03;5010290;28;20026;-76
2022/12/01 06:18:30;;;;;;;63.25;19.52;;;;;;;4.85;100.00;102770.97;4991541;28;20033;-75
2022/12/01 06:20:55;;;;;;;66.07;20.65;;;;;;;4.86;100.00;102770.16;4992781;28;20014;-76
2022/12/01 06:23:20;;;;;;;60.38;18.67;;;;;;;4.83;100.00;102760.69;5010155;28;20148;-76
2022/12/01 06:25:46;;;;;;;58.03;19.55;;;;;;;4.87;100.00;102764.19;5010446;28;20120;-76
2022/12/01 06:28:11;;;;;;;69.72;20.55;;;;;;;4.86;100.00;102765.91;5004667;28;20030;-76
2022/12/01 06:30:36;;;;;;;61.88;19.77;;;;;;;4.87;100.00;102761.63;5002933;28;20017;-76
2022/12/01 06:33:02;;;;;;;62.67;19.42;;;;;;;4.85;100.00;102763.28;5008578;28;20087;-76
2022/12/01 06:35:27;;;;;;;56.72;18.38;;;;;;;4.88;100.00;102768.53;5010562;28;20022;-76
2022/12/01 06:37:55;;;;;;;58.45;18.13;;;;;;;4.85;100.00;102769.28;5008040;28;20427;-76
2022/12/01 06:40:21;;;;;;;63.35;18.73;;;;;;;4.85;100.00;102773.56;5021124;28;20053;-76
2022/12/01 06:42:46;;;;;;;61.55;18.95;;;;;;;4.84;100.00;102769.25;5010700;28;20068;-76
2022/12/01 06:45:11;;;;;;;66.40;19.85;;;;;;;4.85;100.00;102773.56;5009470;28;20033;-76
2022/12/01 06:47:37;;;;;;;65.88;20.25;;;;;;;4.83;100.00;102775.22;5008909;28;20036;-76
2022/12/01 06:50:06;;;;;;;66.50;20.05;;;;;;;4.83;100.00;102770.97;5009101;28;20038;-76
2022/12/01 06:52:32;;;;;;;64.78;19.27;;;;;;;4.83;100.00;102776.09;5008027;28;20022;-76
2022/12/01 06:54:59;;;;;;;60.17;19.05;;;;;;;4.83;100.00;102775.22;5010022;28;20084;-76
2022/12/01 06:57:24;;;;;;;64.28;19.45;;;;;;;4.83;100.00;102777.78;5012512;28;20034;-76
2022/12/01 06:59:49;;;;;;;63.42;19.58;;;;;;;4.84;100.00;102782.97;5007768;28;20057;-76
2022/12/01 07:02:15;;;;;;;64.00;19.90;;;;;;;4.85;100.00;102794.09;5008129;28;20056;-76
2022/12/01 07:04:41;;;;;;;69.05;20.27;;;;;;;4.86;100.00;102790.72;5009528;28;20056;-76
2022/12/01 07:07:07;;;;;;;57.20;18.42;;;;;;;4.86;100.00;102796.72;5005100;28;20104;-76
2022/12/01 07:09:33;;;;;;;63.95;19.80;;;;;;;4.87;100.00;102802.75;4998880;28;20042;-76
2022/12/01 07:11:58;;;;;;;65.45;19.80;;;;;;;4.87;100.00;102795.03;5011088;28;20032;-76
2022/12/01 07:14:29;;;;;;;61.13;19.70;;;;;;;4.86;100.00;102799.28;5010364;28;20022;-76
2022/12/01 07:16:55;;;;;;;59.80;20.33;;;;;;;4.86;100.00;102804.44;5009159;28;20080;-76
2022/12/01 07:19:20;;;;;;;54.65;19.20;;;;;;;4.86;100.00;102801.00;5008291;28;20029;-76
2022/12/01 07:21:45;;;;;;;59.55;19.08;;;;;;;4.85;100.00;102806.94;5011946;28;20089;-76
2022/12/01 07:24:11;;;;;;;65.18;19.55;;;;;;;4.85;100.00;102809.53;5012757;28;20477;-76
2022/12/01 07:26:37;;;;;;;64.55;19.70;;;;;;;4.84;100.00;102810.38;5010342;28;20029;-77
2022/12/01 07:29:02;;;;;;;61.80;20.88;;;;;;;4.86;100.00;102809.56;5011751;28;20047;-77
2022/12/01 07:31:27;;;;;;;66.97;21.05;;;;;;;4.86;100.00;102808.69;5012475;28;20030;-77
2022/12/01 07:33:52;;;;;;;67.57;21.77;;;;;;;4.85;100.00;102815.53;5011162;28;20045;-77
2022/12/01 07:36:18;;;;;;;63.05;20.27;;;;;;;4.85;100.00;102815.53;5014760;28;20057;-77
2022/12/01 07:38:43;;;;;;;67.30;21.08;;;;;;;4.85;100.00;102809.53;5004782;28;20052;-77
2022/12/01 07:41:11;;;;;;;59.30;20.42;;;;;;;4.84;100.00;102813.81;5010871;28;20175;-77
2022/12/01 07:43:37;;;;;;;66.80;22.85;;;;;;;4.84;100.00;102812.94;5010412;28;20420;-77
2022/12/01 07:46:05;;;;;;;64.25;21.02;;;;;;;4.82;100.00;102812.88;5011184;28;20551;-76
2022/12/01 07:48:30;;;;;;;66.53;20.65;;;;;;;4.81;100.00;102807.69;4994641;28;20062;-77
2022/12/01 07:50:55;;;;;;;69.25;24.23;;;;;;;4.81;100.00;102820.53;5012036;28;20488;-77
2022/12/01 07:53:22;;;;;;;63.08;20.13;;;;;;;4.83;100.00;102817.22;5005238;28;20036;-77
2022/12/01 07:55:49;;;;;;;59.20;20.33;;;;;;;4.83;100.00;102821.47;5011157;28;20444;-77
2022/12/01 07:58:15;;;;;;;56.78;21.42;;;;;;;4.84;100.00;102816.38;5011318;28;20025;-77
2022/12/01 08:00:40;;;;;;;59.72;19.98;;;;;;;4.83;100.00;102819.78;5008117;28;20033;-77
2022/12/01 08:03:05;;;;;;;57.42;20.30;;;;;;;4.84;100.00;102812.94;5013556;28;20427;-77
2022/12/01 08:05:31;;;;;;;61.28;20.73;;;;;;;4.87;100.00;102820.72;5013849;28;20030;-77
2022/12/01 08:07:56;;;;;;;62.58;20.70;;;;;;;4.88;100.00;102831.06;5012795;28;20037;-77
2022/12/01 08:10:21;;;;;;;59.30;20.33;;;;;;;4.90;100.00;102826.84;5011590;28;20069;-77
2022/12/01 08:12:47;;;;;;;58.38;19.88;;;;;;;4.93;100.00;102831.19;5017628;28;20061;-77
2022/12/01 08:15:12;;;;;;;63.58;21.00;;;;;;;4.98;100.00;102837.38;5014727;28;20029;-77
2022/12/01 08:17:37;;;;;;;62.05;19.30;;;;;;;5.00;100.00;102839.16;4994218;28;20026;-77
2022/12/01 08:20:04;;;;;;;59.83;20.23;;;;;;;5.03;100.00;102836.69;5009833;28;20120;-77
2022/12/01 08:22:29;;;;;;;58.13;20.70;;;;;;;5.05;100.00;102834.16;5007980;28;20707;-77
2022/12/01 08:24:55;;;;;;;58.25;20.38;;;;;;;5.06;100.00;102834.19;5006745;28;20026;-77
2022/12/01 08:27:20;;;;;;;59.03;20.15;;;;;;;5.13;100.00;102838.69;4996320;28;20029;-77
2022/12/01 08:29:45;;;;;;;61.88;20.45;;;;;;;5.18;100.00;102838.84;5004767;28;20030;-77
2022/12/01 08:32:11;;;;;;;62.92;20.55;;;;;;;5.20;100.00;102828.59;5001935;28;20116;-77
2022/12/01 08:34:37;;;;;;;65.95;21.38;;;;;;;5.24;100.00;102833.03;4998439;28;20377;-77
2022/12/01 08:37:02;;;;;;;57.33;20.73;;;;;;;5.23;100.00;102845.00;5007824;28;20060;-77
2022/12/01 08:39:28;;;;;;;61.05;20.77;;;;;;;5.24;100.00;102844.19;5008271;28;20033;-76
2022/12/01 08:41:53;;;;;;;60.72;21.27;;;;;;;5.21;100.00;102851.78;5010562;28;20029;-76
2022/12/01 08:44:18;;;;;;;64.63;21.23;;;;;;;5.23;100.00;102844.13;5006734;28;20100;-76
2022/12/01 08:46:44;;;;;;;58.88;20.80;;;;;;;5.25;100.00;102845.06;5008208;28;20909;-77
2022/12/01 08:49:09;;;;;;;56.22;20.35;;;;;;;5.24;100.00;102840.75;5010638;28;20033;-77
2022/12/01 08:51:35;;;;;;;63.55;21.42;;;;;;;5.30;100.00;102843.50;5011352;28;20026;-77
2022/12/01 08:54:01;;;;;;;56.15;20.40;;;;;;;5.30;100.00;102836.66;4993002;28;20042;-77
2022/12/01 08:56:35;;;;;;;59.10;21.48;;;;;;;5.34;100.00;102855.59;5010293;28;20058;-77
2022/12/01 08:59:01;;;;;;;57.50;21.58;;;;;;;5.38;100.00;102852.31;5006809;28;20377;-77
2022/12/01 09:01:27;;;;;;;64.40;21.50;;;;;;;5.43;100.00;102849.03;5004091;28;20500;-77
2022/12/01 09:04:09;;;;;;;61.83;21.75;;;;;;;5.43;100.00;102848.16;5007311;28;20038;-76
2022/12/01 09:06:40;;;;;;;63.10;23.70;;;;;;;5.39;100.00;102844.63;5011393;28;20512;-76
2022/12/01 09:09:11;;;;;;;63.70;20.98;;;;;;;5.35;100.00;102847.06;5010276;28;20054;-76
2022/12/01 09:11:36;;;;;;;61.58;21.02;;;;;;;5.29;100.00;102850.31;5010004;28;20438;-77
2022/12/01 09:14:01;;;;;;;58.65;20.63;;;;;;;5.30;100.00;102856.34;5012288;28;20018;-77
2022/12/01 09:16:27;;;;;;;61.72;21.38;;;;;;;5.30;100.00;102849.50;5011480;28;20033;-77
2022/12/01 09:18:53;;;;;;;61.88;21.85;;;;;;;5.30;100.00;102846.94;5010313;28;20034;-77
2022/12/01 09:21:22;;;;;;;59.45;20.73;;;;;;;5.27;100.00;102851.97;5010131;28;20088;-77
2022/12/01 09:23:48;;;;;;;61.30;20.77;;;;;;;5.15;100.00;102854.16;5011045;28;20025;-77
2022/12/01 09:26:17;;;;;;;60.67;21.20;;;;;;;5.06;100.00;102852.19;4983283;28;20030;-77
2022/12/01 09:28:46;;;;;;;62.03;22.05;;;;;;;5.03;100.00;102857.25;5006046;28;20028;-77
2022/12/01 09:31:13;;;;;;;66.50;22.75;;;;;;;5.01;100.00;102848.59;5003521;28;20504;-77
2022/12/01 09:33:39;;;;;;;64.63;21.38;;;;;;;5.04;100.00;102863.25;5008913;28;20025;-77
2022/12/01 09:36:06;;;;;;;65.95;21.63;;;;;;;5.05;100.00;102854.72;5012030;28;20022;-77
2022/12/01 09:38:33;;;;;;;70.50;21.95;;;;;;;5.06;100.00;102864.16;5009906;28;20038;-77
2022/12/01 09:41:03;;;;;;;62.75;21.77;;;;;;;5.11;100.00;102860.06;5010165;28;20108;-77
2022/12/01 09:43:37;;;;;;;69.05;22.63;;;;;;;5.15;100.00;102862.75;5003738;28;20026;-77
2022/12/01 09:46:08;;;;;;;69.75;22.70;;;;;;;5.20;100.00;102860.31;5009041;28;20488;-77
2022/12/01 09:48:42;;;;;;;67.60;22.30;;;;;;;5.27;100.00;102864.81;5008870;28;20476;-77
2022/12/01 09:51:16;;;;;;;66.65;21.13;;;;;;;5.35;100.00;102857.34;5008119;28;20026;-77
2022/12/01 09:53:43;;;;;;;72.35;22.70;;;;;;;5.45;100.00;102856.81;4992653;28;20042;-77
2022/12/01 09:56:29;;;;;;;65.95;22.38;;;;;;;5.53;100.00;102861.31;5009695;28;20033;-77
2022/12/01 09:59:06;;;;;;;67.05;21.88;;;;;;;5.57;100.00;102855.47;4995396;28;20088;-77
2022/12/01 10:01:36;;;;;;;63.13;20.27;;;;;;;5.53;100.00;102858.75;5007852;28;20109;-77
2022/12/01 10:04:10;;;;;;;66.25;20.40;;;;;;;5.52;100.00;102854.47;5008321;28;20061;-77
2022/12/01 10:06:42;;;;;;;69.28;22.48;;;;;;;5.53;100.00;102851.03;5007335;28;20125;-77
2022/12/01 10:09:19;;;;;;;67.43;22.60;;;;;;;5.56;100.00;102842.56;5009347;28;20046;-77
2022/12/01 10:11:46;;;;;;;66.30;21.23;;;;;;;5.61;100.00;102840.09;5010240;28;20042;-77
2022/12/01 10:14:17;;;;;;;68.63;21.95;;;;;;;5.65;100.00;102836.81;5004827;28;20030;-77
2022/12/01 10:17:21;;;;;;;65.75;22.15;;;;;;;5.69;100.00;102841.19;4990768;28;20109;-77
2022/12/01 10:20:02;;;;;;;63.28;21.35;;;;;;;5.72;100.00;102838.72;5006591;28;20068;-77
2022/12/01 10:22:43;;;;;;;63.58;20.80;;;;;;;5.77;100.00;102832.00;5009941;28;20492;-77
2022/12/01 10:25:20;;;;;;;71.32;20.75;;;;;;;5.82;100.00;102833.00;5008707;28;20174;-77
2022/12/01 10:28:06;;;;;;;67.07;22.48;;;;;;;5.93;100.00;102835.09;5006867;28;20052;-77
2022/12/01 10:30:38;;;;;;;69.45;22.05;;;;;;;6.01;100.00;102832.69;4999691;28;20046;-77
2022/12/01 10:33:18;;;;;;;70.45;22.42;;;;;;;6.12;100.00;102836.44;5005601;28;20542;-77
2022/12/01 10:35:44;;;;;;;62.63;21.75;;;;;;;6.23;100.00;102831.56;5006052;28;20028;-77
2022/12/01 10:38:25;;;;;;;62.83;22.45;;;;;;;6.33;100.00;102820.69;4990125;28;20038;-77
2022/12/01 10:40:52;;;;;;;65.60;21.33;;;;;;;6.42;100.00;102823.47;5010239;28;20485;-77
2022/12/01 10:43:17;;;;;;;62.28;21.52;;;;;;;6.47;100.00;102827.06;5010849;28;20452;-77
2022/12/01 10:45:44;;;;;;;62.25;21.13;;;;;;;6.50;100.00;102819.38;4992128;28;20152;-77
2022/12/01 10:48:09;;;;;;;64.15;21.40;;;;;;;6.49;100.00;102817.63;5002137;28;20697;-77
2022/12/01 10:50:35;;;;;;;56.22;19.92;;;;;;;6.48;100.00;102815.03;5007465;28;20103;-77
2022/12/01 10:53:01;;;;;;;62.95;21.55;;;;;;;6.43;100.00;102814.03;5004209;28;20036;-77
2022/12/01 10:55:37;;;;;;;63.58;20.30;;;;;;;6.44;100.00;102815.78;5003535;28;20125;-77
2022/12/01 10:58:12;;;;;;;56.80;20.52;;;;;;;6.44;100.00;102818.34;5007276;28;20033;-77
2022/12/01 11:00:41;;;;;;;57.75;19.60;;;;;;;6.45;100.00;102810.69;4989562;28;20471;-77
2022/12/01 11:03:18;;;;;;;59.33;20.35;;;;;;;6.49;100.00;102815.06;5002038;28;20021;-77
2022/12/01 11:05:51;;;;;;;57.63;19.95;;;;;;;6.48;100.00;102809.88;4999328;28;20111;-77
2022/12/01 11:08:29;;;;;;;53.03;20.33;;;;;;;6.51;100.00;102808.25;5004289;28;20053;-77
2022/12/01 11:10:55;;;;;;;58.35;21.40;;;;;;;6.52;100.00;102807.41;5009911;28;20501;-77
2022/12/01 11:13:29;;;;;;;54.50;18.80;;;;;;;6.53;100.00;102810.88;5008610;28;20091;-77
2022/12/01 11:16:01;;;;;;;53.08;18.30;;;;;;;6.55;100.00;102807.47;5010162;28;20049;-77
2022/12/01 11:18:26;;;;;;;56.58;18.08;;;;;;;6.60;100.00;102811.06;5005214;28;20432;-77
2022/12/01 11:21:24;;;;;;;60.03;20.33;;;;;;;6.64;100.00;102810.28;5010114;28;20504;-77
2022/12/01 11:23:52;;;;;;;56.83;20.25;;;;;;;6.67;100.00;102802.63;5005953;28;20339;-77